aviador You're here:

KDET Decoded Metar

DETROIT in MI, USA
Report Time2017-07-26 21:53:00
UTC Time2017-07-26 22:37:54
Flight Rules vfr VFR
Wind260° at 06 kt
W.Decomp.*RWY 25: 5.8 kt HW 1.6 kt RCW
RWY 33: 2.5 kt HW 5.4 kt LCW
W.Rank260° ranks 4
Current wind is below 260° avg. (8.3)
Visibility9999 m
Phenomena:N/A
Clouds:N/A
Expected CloudBase > 4,400 ft AGL from Temp-Dew spread
CeilingNone
Temp27°C (ISA +13)
Dew Point16°C (51% RH)
Heat Index27.5°C
AAT26.8°C
QNH1018 hPa
Density Alt2,224 ft
Elevation623 ft
Report Wrong Elevation
Raw Report
METAR KDET 262153Z 26006KT 10SM CLR 27/16 A3005 RMK AO2 SLP173 T02670156=

Extra information for KDET:More info

Metar Taf Metar & Taf Last 4 Metars F.Rules Stats Wind Profile Meteogram Temp Stats Airport Information Weather charts Add Link Nearby VenuesMetar ALERT Operation Metar Decoded Social comments

AIRNAV info for KDET